sensor_id;sensor_type;location;lat;lon;timestamp;temperature;humidity
11126;DHT22;5617;54.046;10.676;2023-07-20T00:00:08;14.10;99.90
11126;DHT22;5617;54.046;10.676;2023-07-20T00:02:18;14.10;99.90
11126;DHT22;5617;54.046;10.676;2023-07-20T00:04:25;14.10;99.90
11126;DHT22;5617;54.046;10.676;2023-07-20T00:06:32;14.10;99.90
11126;DHT22;5617;54.046;10.676;2023-07-20T00:08:40;14.20;99.90
11126;DHT22;5617;54.046;10.676;2023-07-20T00:10:48;14.10;99.90
11126;DHT22;5617;54.046;10.676;2023-07-20T00:12:56;14.10;99.90
11126;DHT22;5617;54.046;10.676;2023-07-20T00:15:05;14.10;99.90
11126;DHT22;5617;54.046;10.676;2023-07-20T00:17:12;14.20;99.90
11126;DHT22;5617;54.046;10.676;2023-07-20T00:19:22;14.20;99.90
11126;DHT22;5617;54.046;10.676;2023-07-20T00:21:30;14.20;99.90
11126;DHT22;5617;54.046;10.676;2023-07-20T00:23:38;14.20;99.90
11126;DHT22;5617;54.046;10.676;2023-07-20T00:25:47;14.20;99.90
11126;DHT22;5617;54.046;10.676;2023-07-20T00:27:54;14.20;99.90
11126;DHT22;5617;54.046;10.676;2023-07-20T00:30:04;14.10;99.90
11126;DHT22;5617;54.046;10.676;2023-07-20T00:32:12;14.10;99.90
11126;DHT22;5617;54.046;10.676;2023-07-20T00:34:19;14.10;99.90
11126;DHT22;5617;54.046;10.676;2023-07-20T00:36:29;14.10;99.90
11126;DHT22;5617;54.046;10.676;2023-07-20T00:38:36;14.10;99.90
11126;DHT22;5617;54.046;10.676;2023-07-20T00:40:44;14.10;99.90
11126;DHT22;5617;54.046;10.676;2023-07-20T00:42:52;14.10;99.90
11126;DHT22;5617;54.046;10.676;2023-07-20T00:44:59;14.10;99.90
11126;DHT22;5617;54.046;10.676;2023-07-20T00:47:08;14.00;99.90
11126;DHT22;5617;54.046;10.676;2023-07-20T00:49:16;14.10;99.90
11126;DHT22;5617;54.046;10.676;2023-07-20T00:51:29;14.10;99.90
11126;DHT22;5617;54.046;10.676;2023-07-20T00:53:37;14.00;99.90
11126;DHT22;5617;54.046;10.676;2023-07-20T00:55:44;14.00;99.90
11126;DHT22;5617;54.046;10.676;2023-07-20T00:57:52;14.00;99.90
11126;DHT22;5617;54.046;10.676;2023-07-20T01:00:00;14.00;99.90
11126;DHT22;5617;54.046;10.676;2023-07-20T01:02:09;14.00;99.90
11126;DHT22;5617;54.046;10.676;2023-07-20T01:04:17;14.00;99.90
11126;DHT22;5617;54.046;10.676;2023-07-20T01:06:29;14.00;99.90
11126;DHT22;5617;54.046;10.676;2023-07-20T01:08:43;14.00;99.90
11126;DHT22;5617;54.046;10.676;2023-07-20T01:10:57;14.00;99.90
11126;DHT22;5617;54.046;10.676;2023-07-20T01:13:06;14.00;99.90
11126;DHT22;5617;54.046;10.676;2023-07-20T01:15:14;14.10;99.90
11126;DHT22;5617;54.046;10.676;2023-07-20T01:17:22;14.10;99.90
11126;DHT22;5617;54.046;10.676;2023-07-20T01:19:31;14.00;99.90
11126;DHT22;5617;54.046;10.676;2023-07-20T01:21:47;14.00;99.90
11126;DHT22;5617;54.046;10.676;2023-07-20T01:24:19;14.00;99.90
11126;DHT22;5617;54.046;10.676;2023-07-20T01:26:47;14.10;99.90
11126;DHT22;5617;54.046;10.676;2023-07-20T01:29:27;14.10;99.90
11126;DHT22;5617;54.046;10.676;2023-07-20T01:31:42;14.10;99.90
11126;DHT22;5617;54.046;10.676;2023-07-20T01:33:54;14.10;99.90
11126;DHT22;5617;54.046;10.676;2023-07-20T01:36:03;14.10;99.90
11126;DHT22;5617;54.046;10.676;2023-07-20T01:38:12;14.10;99.90
11126;DHT22;5617;54.046;10.676;2023-07-20T01:40:22;14.00;99.90
11126;DHT22;5617;54.046;10.676;2023-07-20T01:42:31;14.10;99.90
11126;DHT22;5617;54.046;10.676;2023-07-20T01:44:38;14.00;99.90
11126;DHT22;5617;54.046;10.676;2023-07-20T01:46:47;14.10;99.90
11126;DHT22;5617;54.046;10.676;2023-07-20T01:48:55;14.10;99.90
11126;DHT22;5617;54.046;10.676;2023-07-20T01:51:03;14.00;99.90
11126;DHT22;5617;54.046;10.676;2023-07-20T01:53:11;14.00;99.90
11126;DHT22;5617;54.046;10.676;2023-07-20T01:55:19;14.10;99.90
11126;DHT22;5617;54.046;10.676;2023-07-20T01:57:27;14.10;99.90
11126;DHT22;5617;54.046;10.676;2023-07-20T01:59:34;14.00;99.90
11126;DHT22;5617;54.046;10.676;2023-07-20T02:01:42;14.10;99.90
11126;DHT22;5617;54.046;10.676;2023-07-20T02:03:51;14.10;99.90
11126;DHT22;5617;54.046;10.676;2023-07-20T02:05:59;14.10;99.90
11126;DHT22;5617;54.046;10.676;2023-07-20T02:08:07;14.10;99.90
11126;DHT22;5617;54.046;10.676;2023-07-20T02:10:16;14.10;99.90
11126;DHT22;5617;54.046;10.676;2023-07-20T02:12:24;14.00;99.90
11126;DHT22;5617;54.046;10.676;2023-07-20T02:14:32;14.10;99.90
11126;DHT22;5617;54.046;10.676;2023-07-20T02:16:40;14.10;99.90
11126;DHT22;5617;54.046;10.676;2023-07-20T02:18:52;14.00;99.90
11126;DHT22;5617;54.046;10.676;2023-07-20T02:21:00;14.10;99.90
11126;DHT22;5617;54.046;10.676;2023-07-20T02:23:08;14.10;99.90
11126;DHT22;5617;54.046;10.676;2023-07-20T02:25:16;14.10;99.90
11126;DHT22;5617;54.046;10.676;2023-07-20T02:27:23;14.10;99.90
11126;DHT22;5617;54.046;10.676;2023-07-20T02:29:31;14.10;99.90
11126;DHT22;5617;54.046;10.676;2023-07-20T02:31:39;14.10;99.90
11126;DHT22;5617;54.046;10.676;2023-07-20T02:33:48;14.10;99.90
11126;DHT22;5617;54.046;10.676;2023-07-20T02:35:57;14.10;99.90
11126;DHT22;5617;54.046;10.676;2023-07-20T02:38:04;14.10;99.90
11126;DHT22;5617;54.046;10.676;2023-07-20T02:40:13;14.10;99.90
11126;DHT22;5617;54.046;10.676;2023-07-20T02:42:21;14.10;99.90
11126;DHT22;5617;54.046;10.676;2023-07-20T02:44:30;14.10;99.90
11126;DHT22;5617;54.046;10.676;2023-07-20T02:46:38;14.10;99.90
11126;DHT22;5617;54.046;10.676;2023-07-20T02:48:46;14.10;99.90
11126;DHT22;5617;54.046;10.676;2023-07-20T02:50:54;14.10;99.90
11126;DHT22;5617;54.046;10.676;2023-07-20T02:53:03;14.10;99.90
11126;DHT22;5617;54.046;10.676;2023-07-20T02:55:11;14.10;99.90
11126;DHT22;5617;54.046;10.676;2023-07-20T02:57:19;14.10;99.90
11126;DHT22;5617;54.046;10.676;2023-07-20T02:59:27;14.10;99.90
11126;DHT22;5617;54.046;10.676;2023-07-20T03:01:36;14.10;99.90
11126;DHT22;5617;54.046;10.676;2023-07-20T03:03:44;14.20;99.90
11126;DHT22;5617;54.046;10.676;2023-07-20T03:05:53;14.20;99.90
11126;DHT22;5617;54.046;10.676;2023-07-20T03:08:04;14.10;99.90
11126;DHT22;5617;54.046;10.676;2023-07-20T03:10:12;14.20;99.90
11126;DHT22;5617;54.046;10.676;2023-07-20T03:12:20;14.20;99.90
11126;DHT22;5617;54.046;10.676;2023-07-20T03:14:27;14.20;99.90
11126;DHT22;5617;54.046;10.676;2023-07-20T03:16:35;14.20;99.90
11126;DHT22;5617;54.046;10.676;2023-07-20T03:18:43;14.20;99.90
11126;DHT22;5617;54.046;10.676;2023-07-20T03:20:51;14.20;99.90
11126;DHT22;5617;54.046;10.676;2023-07-20T03:22:59;14.20;99.90
11126;DHT22;5617;54.046;10.676;2023-07-20T03:25:09;14.20;99.90
11126;DHT22;5617;54.046;10.676;2023-07-20T03:27:16;14.20;99.90
11126;DHT22;5617;54.046;10.676;2023-07-20T03:29:24;14.20;99.90
11126;DHT22;5617;54.046;10.676;2023-07-20T03:31:32;14.20;99.90
11126;DHT22;5617;54.046;10.676;2023-07-20T03:33:39;14.20;99.90
11126;DHT22;5617;54.046;10.676;2023-07-20T03:35:49;14.20;99.90
11126;DHT22;5617;54.046;10.676;2023-07-20T03:37:57;14.20;99.90
11126;DHT22;5617;54.046;10.676;2023-07-20T03:40:08;14.10;99.90
11126;DHT22;5617;54.046;10.676;2023-07-20T03:42:17;14.20;99.90
11126;DHT22;5617;54.046;10.676;2023-07-20T03:44:24;14.10;99.90
11126;DHT22;5617;54.046;10.676;2023-07-20T03:46:32;14.10;99.90
11126;DHT22;5617;54.046;10.676;2023-07-20T03:48:40;14.10;99.90
11126;DHT22;5617;54.046;10.676;2023-07-20T03:50:49;14.10;99.90
11126;DHT22;5617;54.046;10.676;2023-07-20T03:52:57;14.10;99.90
11126;DHT22;5617;54.046;10.676;2023-07-20T03:55:09;14.20;99.90
11126;DHT22;5617;54.046;10.676;2023-07-20T03:57:17;14.20;99.90
11126;DHT22;5617;54.046;10.676;2023-07-20T03:59:25;14.20;99.90
11126;DHT22;5617;54.046;10.676;2023-07-20T04:01:33;14.20;99.90
11126;DHT22;5617;54.046;10.676;2023-07-20T04:03:43;14.20;99.90
11126;DHT22;5617;54.046;10.676;2023-07-20T04:05:56;14.20;99.90
11126;DHT22;5617;54.046;10.676;2023-07-20T04:08:04;14.30;99.90
11126;DHT22;5617;54.046;10.676;2023-07-20T04:10:13;14.30;99.90
11126;DHT22;5617;54.046;10.676;2023-07-20T04:12:22;14.30;99.90
11126;DHT22;5617;54.046;10.676;2023-07-20T04:14:29;14.30;99.90
11126;DHT22;5617;54.046;10.676;2023-07-20T04:16:37;14.30;99.90
11126;DHT22;5617;54.046;10.676;2023-07-20T04:18:44;14.30;99.90
11126;DHT22;5617;54.046;10.676;2023-07-20T04:20:52;14.30;99.90
11126;DHT22;5617;54.046;10.676;2023-07-20T04:22:59;14.30;99.90
11126;DHT22;5617;54.046;10.676;2023-07-20T04:25:08;14.30;99.90
11126;DHT22;5617;54.046;10.676;2023-07-20T04:27:18;14.30;99.90
11126;DHT22;5617;54.046;10.676;2023-07-20T04:29:26;14.30;99.90
11126;DHT22;5617;54.046;10.676;2023-07-20T04:31:34;14.30;99.90
11126;DHT22;5617;54.046;10.676;2023-07-20T04:33:41;14.30;99.90
11126;DHT22;5617;54.046;10.676;2023-07-20T04:35:51;14.30;99.90
11126;DHT22;5617;54.046;10.676;2023-07-20T04:37:58;14.40;99.90
11126;DHT22;5617;54.046;10.676;2023-07-20T04:40:08;14.90;99.90
11126;DHT22;5617;54.046;10.676;2023-07-20T04:42:17;15.30;99.90
11126;DHT22;5617;54.046;10.676;2023-07-20T04:44:26;15.80;99.90
11126;DHT22;5617;54.046;10.676;2023-07-20T04:46:34;16.40;99.90
11126;DHT22;5617;54.046;10.676;2023-07-20T04:48:42;16.90;99.90
11126;DHT22;5617;54.046;10.676;2023-07-20T04:50:50;17.30;99.90
11126;DHT22;5617;54.046;10.676;2023-07-20T04:52:58;17.70;99.90
11126;DHT22;5617;54.046;10.676;2023-07-20T04:55:06;17.80;99.90
11126;DHT22;5617;54.046;10.676;2023-07-20T04:57:14;17.70;99.90
11126;DHT22;5617;54.046;10.676;2023-07-20T04:59:23;17.40;99.90
11126;DHT22;5617;54.046;10.676;2023-07-20T05:01:31;17.20;99.90
11126;DHT22;5617;54.046;10.676;2023-07-20T05:03:39;17.00;99.90
11126;DHT22;5617;54.046;10.676;2023-07-20T05:05:47;16.90;99.90
11126;DHT22;5617;54.046;10.676;2023-07-20T05:07:56;16.70;99.90
11126;DHT22;5617;54.046;10.676;2023-07-20T05:10:03;16.40;99.90
11126;DHT22;5617;54.046;10.676;2023-07-20T05:12:11;16.20;99.90
11126;DHT22;5617;54.046;10.676;2023-07-20T05:14:19;16.10;99.90
11126;DHT22;5617;54.046;10.676;2023-07-20T05:16:29;16.00;99.90
11126;DHT22;5617;54.046;10.676;2023-07-20T05:18:36;15.90;99.90
11126;DHT22;5617;54.046;10.676;2023-07-20T05:20:45;15.80;99.90
11126;DHT22;5617;54.046;10.676;2023-07-20T05:22:53;15.70;99.90
11126;DHT22;5617;54.046;10.676;2023-07-20T05:25:01;15.70;99.90
11126;DHT22;5617;54.046;10.676;2023-07-20T05:27:08;15.70;99.90
11126;DHT22;5617;54.046;10.676;2023-07-20T05:29:16;15.70;99.90
11126;DHT22;5617;54.046;10.676;2023-07-20T05:31:24;15.70;99.90
11126;DHT22;5617;54.046;10.676;2023-07-20T05:33:34;15.70;99.90
11126;DHT22;5617;54.046;10.676;2023-07-20T05:35:42;15.80;99.90
11126;DHT22;5617;54.046;10.676;2023-07-20T05:37:50;15.80;99.90
11126;DHT22;5617;54.046;10.676;2023-07-20T05:39:57;15.90;99.90
11126;DHT22;5617;54.046;10.676;2023-07-20T05:42:05;15.90;99.90
11126;DHT22;5617;54.046;10.676;2023-07-20T05:44:13;16.00;99.90
11126;DHT22;5617;54.046;10.676;2023-07-20T05:46:21;16.00;99.90
11126;DHT22;5617;54.046;10.676;2023-07-20T05:48:31;16.10;99.90
11126;DHT22;5617;54.046;10.676;2023-07-20T05:50:43;16.00;99.90
11126;DHT22;5617;54.046;10.676;2023-07-20T05:52:52;16.10;99.90
11126;DHT22;5617;54.046;10.676;2023-07-20T05:55:00;16.20;99.90
11126;DHT22;5617;54.046;10.676;2023-07-20T05:57:08;16.30;99.90
11126;DHT22;5617;54.046;10.676;2023-07-20T05:59:16;16.40;99.90
11126;DHT22;5617;54.046;10.676;2023-07-20T06:01:24;16.40;99.90
11126;DHT22;5617;54.046;10.676;2023-07-20T06:03:34;16.50;99.90
11126;DHT22;5617;54.046;10.676;2023-07-20T06:05:44;16.60;99.90
11126;DHT22;5617;54.046;10.676;2023-07-20T06:07:53;16.70;99.90
11126;DHT22;5617;54.046;10.676;2023-07-20T06:10:02;16.80;99.90
11126;DHT22;5617;54.046;10.676;2023-07-20T06:12:11;16.90;99.90
11126;DHT22;5617;54.046;10.676;2023-07-20T06:14:19;17.10;99.90
11126;DHT22;5617;54.046;10.676;2023-07-20T06:16:27;17.20;99.90
11126;DHT22;5617;54.046;10.676;2023-07-20T06:18:35;17.30;99.90
11126;DHT22;5617;54.046;10.676;2023-07-20T06:20:48;17.30;99.90
11126;DHT22;5617;54.046;10.676;2023-07-20T06:22:56;17.30;99.90
11126;DHT22;5617;54.046;10.676;2023-07-20T06:25:05;17.40;99.90
11126;DHT22;5617;54.046;10.676;2023-07-20T06:27:13;17.50;99.90
11126;DHT22;5617;54.046;10.676;2023-07-20T06:29:22;17.60;99.90
11126;DHT22;5617;54.046;10.676;2023-07-20T06:31:30;17.70;99.90
11126;DHT22;5617;54.046;10.676;2023-07-20T06:33:38;17.80;99.90
11126;DHT22;5617;54.046;10.676;2023-07-20T06:35:47;17.90;99.90
11126;DHT22;5617;54.046;10.676;2023-07-20T06:37:55;17.90;99.90
11126;DHT22;5617;54.046;10.676;2023-07-20T06:40:23;17.90;99.90
11126;DHT22;5617;54.046;10.676;2023-07-20T06:42:35;18.00;99.90
11126;DHT22;5617;54.046;10.676;2023-07-20T06:44:48;18.00;99.90
11126;DHT22;5617;54.046;10.676;2023-07-20T06:46:55;18.00;99.90
11126;DHT22;5617;54.046;10.676;2023-07-20T06:49:06;18.10;99.90
11126;DHT22;5617;54.046;10.676;2023-07-20T06:51:20;18.30;99.90
11126;DHT22;5617;54.046;10.676;2023-07-20T06:53:29;18.40;99.90
11126;DHT22;5617;54.046;10.676;2023-07-20T06:55:37;18.50;99.90
11126;DHT22;5617;54.046;10.676;2023-07-20T06:57:49;18.50;99.90
11126;DHT22;5617;54.046;10.676;2023-07-20T06:59:57;18.60;99.90
11126;DHT22;5617;54.046;10.676;2023-07-20T07:02:05;18.70;99.90
11126;DHT22;5617;54.046;10.676;2023-07-20T07:04:21;18.80;99.80
11126;DHT22;5617;54.046;10.676;2023-07-20T07:06:30;19.00;99.60
11126;DHT22;5617;54.046;10.676;2023-07-20T07:08:39;19.00;99.60
11126;DHT22;5617;54.046;10.676;2023-07-20T07:10:47;19.00;99.40
11126;DHT22;5617;54.046;10.676;2023-07-20T07:12:55;19.10;99.20
11126;DHT22;5617;54.046;10.676;2023-07-20T07:15:05;19.20;99.10
11126;DHT22;5617;54.046;10.676;2023-07-20T07:17:13;19.10;98.80
11126;DHT22;5617;54.046;10.676;2023-07-20T07:19:26;19.00;98.60
11126;DHT22;5617;54.046;10.676;2023-07-20T07:21:35;19.20;98.50
11126;DHT22;5617;54.046;10.676;2023-07-20T07:23:43;19.30;98.30
11126;DHT22;5617;54.046;10.676;2023-07-20T07:25:51;19.40;97.90
11126;DHT22;5617;54.046;10.676;2023-07-20T07:28:00;19.30;97.60
11126;DHT22;5617;54.046;10.676;2023-07-20T07:30:09;19.20;97.40
11126;DHT22;5617;54.046;10.676;2023-07-20T07:32:17;19.00;97.20
11126;DHT22;5617;54.046;10.676;2023-07-20T07:34:25;18.80;97.30
11126;DHT22;5617;54.046;10.676;2023-07-20T07:36:33;18.80;97.60
11126;DHT22;5617;54.046;10.676;2023-07-20T07:38:42;19.00;97.30
11126;DHT22;5617;54.046;10.676;2023-07-20T07:40:55;19.10;97.30
11126;DHT22;5617;54.046;10.676;2023-07-20T07:43:03;19.20;97.00
11126;DHT22;5617;54.046;10.676;2023-07-20T07:45:10;19.20;96.80
11126;DHT22;5617;54.046;10.676;2023-07-20T07:47:19;19.30;96.80
11126;DHT22;5617;54.046;10.676;2023-07-20T07:49:27;19.20;96.80
11126;DHT22;5617;54.046;10.676;2023-07-20T07:51:35;19.20;96.70
11126;DHT22;5617;54.046;10.676;2023-07-20T07:53:46;19.30;96.50
11126;DHT22;5617;54.046;10.676;2023-07-20T07:55:59;19.30;96.40
11126;DHT22;5617;54.046;10.676;2023-07-20T07:58:07;19.30;96.20
11126;DHT22;5617;54.046;10.676;2023-07-20T08:00:17;19.50;95.90
11126;DHT22;5617;54.046;10.676;2023-07-20T08:02:25;19.60;95.50
11126;DHT22;5617;54.046;10.676;2023-07-20T08:04:33;19.80;95.40
11126;DHT22;5617;54.046;10.676;2023-07-20T08:06:41;19.90;95.20
11126;DHT22;5617;54.046;10.676;2023-07-20T08:08:51;20.00;95.00
11126;DHT22;5617;54.046;10.676;2023-07-20T08:10:58;20.30;94.70
11126;DHT22;5617;54.046;10.676;2023-07-20T08:13:14;20.20;94.00
11126;DHT22;5617;54.046;10.676;2023-07-20T08:15:22;20.10;93.80
11126;DHT22;5617;54.046;10.676;2023-07-20T08:17:31;20.20;93.70
11126;DHT22;5617;54.046;10.676;2023-07-20T08:19:39;20.40;93.20
11126;DHT22;5617;54.046;10.676;2023-07-20T08:21:48;20.60;92.90
11126;DHT22;5617;54.046;10.676;2023-07-20T08:23:57;20.90;92.80
11126;DHT22;5617;54.046;10.676;2023-07-20T08:26:05;21.10;92.50
11126;DHT22;5617;54.046;10.676;2023-07-20T08:28:15;21.00;92.00
11126;DHT22;5617;54.046;10.676;2023-07-20T08:30:23;20.90;92.10
11126;DHT22;5617;54.046;10.676;2023-07-20T08:32:33;20.90;92.20
11126;DHT22;5617;54.046;10.676;2023-07-20T08:34:42;20.90;91.90
11126;DHT22;5617;54.046;10.676;2023-07-20T08:36:50;20.90;92.00
11126;DHT22;5617;54.046;10.676;2023-07-20T08:39:01;20.90;91.90
11126;DHT22;5617;54.046;10.676;2023-07-20T08:41:10;20.70;91.80
11126;DHT22;5617;54.046;10.676;2023-07-20T08:43:20;20.70;91.70
11126;DHT22;5617;54.046;10.676;2023-07-20T08:45:33;20.70;91.50
11126;DHT22;5617;54.046;10.676;2023-07-20T08:47:43;20.90;91.60
11126;DHT22;5617;54.046;10.676;2023-07-20T08:49:54;21.10;91.50
11126;DHT22;5617;54.046;10.676;2023-07-20T08:52:03;21.30;91.60
11126;DHT22;5617;54.046;10.676;2023-07-20T08:54:13;21.70;91.40
11126;DHT22;5617;54.046;10.676;2023-07-20T08:56:24;21.90;91.10
11126;DHT22;5617;54.046;10.676;2023-07-20T08:58:35;21.80;90.80
11126;DHT22;5617;54.046;10.676;2023-07-20T09:00:44;21.60;90.90
11126;DHT22;5617;54.046;10.676;2023-07-20T09:02:54;21.30;90.90
11126;DHT22;5617;54.046;10.676;2023-07-20T09:05:02;21.10;91.00
11126;DHT22;5617;54.046;10.676;2023-07-20T09:07:12;21.00;91.30
11126;DHT22;5617;54.046;10.676;2023-07-20T09:09:23;21.00;91.30
11126;DHT22;5617;54.046;10.676;2023-07-20T09:11:31;20.90;91.20
11126;DHT22;5617;54.046;10.676;2023-07-20T09:13:39;20.80;91.10
11126;DHT22;5617;54.046;10.676;2023-07-20T09:15:47;20.80;91.30
11126;DHT22;5617;54.046;10.676;2023-07-20T09:17:56;20.80;91.30
11126;DHT22;5617;54.046;10.676;2023-07-20T09:20:08;20.80;91.30
11126;DHT22;5617;54.046;10.676;2023-07-20T09:22:17;20.70;91.40
11126;DHT22;5617;54.046;10.676;2023-07-20T09:24:28;20.60;91.60
11126;DHT22;5617;54.046;10.676;2023-07-20T09:26:41;20.40;91.70
11126;DHT22;5617;54.046;10.676;2023-07-20T09:28:52;20.20;92.20
11126;DHT22;5617;54.046;10.676;2023-07-20T09:31:15;19.80;92.70
11126;DHT22;5617;54.046;10.676;2023-07-20T09:33:24;19.50;93.50
11126;DHT22;5617;54.046;10.676;2023-07-20T09:35:33;19.30;94.00
11126;DHT22;5617;54.046;10.676;2023-07-20T09:37:54;19.20;94.60
11126;DHT22;5617;54.046;10.676;2023-07-20T09:40:09;19.10;94.90
11126;DHT22;5617;54.046;10.676;2023-07-20T09:42:22;19.10;95.40
11126;DHT22;5617;54.046;10.676;2023-07-20T09:44:36;19.40;95.60
11126;DHT22;5617;54.046;10.676;2023-07-20T09:46:49;19.70;95.70
11126;DHT22;5617;54.046;10.676;2023-07-20T09:49:08;19.90;95.60
11126;DHT22;5617;54.046;10.676;2023-07-20T09:51:22;20.20;95.50
11126;DHT22;5617;54.046;10.676;2023-07-20T09:53:32;20.30;95.20
11126;DHT22;5617;54.046;10.676;2023-07-20T09:55:43;20.60;95.10
11126;DHT22;5617;54.046;10.676;2023-07-20T09:57:53;20.80;94.70
11126;DHT22;5617;54.046;10.676;2023-07-20T10:00:00;20.60;94.50
11126;DHT22;5617;54.046;10.676;2023-07-20T10:02:20;20.40;93.90
11126;DHT22;5617;54.046;10.676;2023-07-20T10:04:29;19.90;94.50
11126;DHT22;5617;54.046;10.676;2023-07-20T10:06:42;19.60;95.00
11126;DHT22;5617;54.046;10.676;2023-07-20T10:08:53;19.40;95.60
11126;DHT22;5617;54.046;10.676;2023-07-20T10:11:02;19.20;96.10
11126;DHT22;5617;54.046;10.676;2023-07-20T10:13:16;19.20;96.20
11126;DHT22;5617;54.046;10.676;2023-07-20T10:15:26;19.10;96.20
11126;DHT22;5617;54.046;10.676;2023-07-20T10:17:38;19.10;96.40
11126;DHT22;5617;54.046;10.676;2023-07-20T10:19:49;19.40;96.40
11126;DHT22;5617;54.046;10.676;2023-07-20T10:22:04;19.80;96.50
11126;DHT22;5617;54.046;10.676;2023-07-20T10:24:16;20.10;96.10
11126;DHT22;5617;54.046;10.676;2023-07-20T10:26:27;20.70;95.80
11126;DHT22;5617;54.046;10.676;2023-07-20T10:28:35;21.10;94.70
11126;DHT22;5617;54.046;10.676;2023-07-20T10:30:46;21.50;94.20
11126;DHT22;5617;54.046;10.676;2023-07-20T10:32:54;21.40;93.50
11126;DHT22;5617;54.046;10.676;2023-07-20T10:35:12;21.30;93.70
11126;DHT22;5617;54.046;10.676;2023-07-20T10:37:46;21.00;94.10
11126;DHT22;5617;54.046;10.676;2023-07-20T10:39:55;20.80;94.40
11126;DHT22;5617;54.046;10.676;2023-07-20T10:42:07;20.80;94.50
11126;DHT22;5617;54.046;10.676;2023-07-20T10:44:19;21.00;93.90
11126;DHT22;5617;54.046;10.676;2023-07-20T10:46:43;21.30;93.50
11126;DHT22;5617;54.046;10.676;2023-07-20T10:49:02;21.70;92.90
11126;DHT22;5617;54.046;10.676;2023-07-20T10:51:12;22.00;92.50
11126;DHT22;5617;54.046;10.676;2023-07-20T10:53:20;22.30;92.30
11126;DHT22;5617;54.046;10.676;2023-07-20T10:55:28;22.60;91.60
11126;DHT22;5617;54.046;10.676;2023-07-20T10:57:38;22.70;91.10
11126;DHT22;5617;54.046;10.676;2023-07-20T10:59:47;22.40;90.60
11126;DHT22;5617;54.046;10.676;2023-07-20T11:01:56;22.10;90.80
11126;DHT22;5617;54.046;10.676;2023-07-20T11:04:08;22.00;91.40
11126;DHT22;5617;54.046;10.676;2023-07-20T11:06:32;22.10;92.00
11126;DHT22;5617;54.046;10.676;2023-07-20T11:08:40;21.90;92.00
11126;DHT22;5617;54.046;10.676;2023-07-20T11:11:21;21.50;91.80
11126;DHT22;5617;54.046;10.676;2023-07-20T11:13:31;20.90;91.70
11126;DHT22;5617;54.046;10.676;2023-07-20T11:15:47;20.60;92.10
11126;DHT22;5617;54.046;10.676;2023-07-20T11:18:11;20.40;92.70
11126;DHT22;5617;54.046;10.676;2023-07-20T11:20:20;20.30;93.40
11126;DHT22;5617;54.046;10.676;2023-07-20T11:22:30;20.40;93.70
11126;DHT22;5617;54.046;10.676;2023-07-20T11:24:39;20.70;94.00
11126;DHT22;5617;54.046;10.676;2023-07-20T11:26:48;20.90;93.90
11126;DHT22;5617;54.046;10.676;2023-07-20T11:28:58;21.30;93.70
11126;DHT22;5617;54.046;10.676;2023-07-20T11:31:06;21.70;93.20
11126;DHT22;5617;54.046;10.676;2023-07-20T11:33:17;21.90;92.60
11126;DHT22;5617;54.046;10.676;2023-07-20T11:35:25;21.90;92.40
11126;DHT22;5617;54.046;10.676;2023-07-20T11:37:33;21.90;91.90
11126;DHT22;5617;54.046;10.676;2023-07-20T11:39:41;22.20;91.60
11126;DHT22;5617;54.046;10.676;2023-07-20T11:41:51;22.30;90.70
11126;DHT22;5617;54.046;10.676;2023-07-20T11:44:00;22.10;90.00
11126;DHT22;5617;54.046;10.676;2023-07-20T11:46:09;22.20;89.40
11126;DHT22;5617;54.046;10.676;2023-07-20T11:48:17;22.20;88.20
11126;DHT22;5617;54.046;10.676;2023-07-20T11:50:25;22.20;88.10
11126;DHT22;5617;54.046;10.676;2023-07-20T11:52:33;22.40;87.90
11126;DHT22;5617;54.046;10.676;2023-07-20T11:54:42;22.80;87.50
11126;DHT22;5617;54.046;10.676;2023-07-20T11:56:56;22.70;86.40
11126;DHT22;5617;54.046;10.676;2023-07-20T11:59:06;22.30;86.60
11126;DHT22;5617;54.046;10.676;2023-07-20T12:01:15;22.40;87.30
11126;DHT22;5617;54.046;10.676;2023-07-20T12:03:23;22.50;87.20
11126;DHT22;5617;54.046;10.676;2023-07-20T12:05:31;22.30;87.10
11126;DHT22;5617;54.046;10.676;2023-07-20T12:07:46;22.00;88.60
11126;DHT22;5617;54.046;10.676;2023-07-20T12:10:04;21.80;89.90
11126;DHT22;5617;54.046;10.676;2023-07-20T12:12:12;21.90;90.50
11126;DHT22;5617;54.046;10.676;2023-07-20T12:14:25;22.00;90.50
11126;DHT22;5617;54.046;10.676;2023-07-20T12:16:34;21.90;90.70
11126;DHT22;5617;54.046;10.676;2023-07-20T12:18:42;21.70;90.80
11126;DHT22;5617;54.046;10.676;2023-07-20T12:20:58;21.60;91.10
11126;DHT22;5617;54.046;10.676;2023-07-20T12:23:09;21.50;91.50
11126;DHT22;5617;54.046;10.676;2023-07-20T12:25:18;21.70;91.60
11126;DHT22;5617;54.046;10.676;2023-07-20T12:27:27;21.80;91.00
11126;DHT22;5617;54.046;10.676;2023-07-20T12:29:37;21.70;90.80
11126;DHT22;5617;54.046;10.676;2023-07-20T12:31:45;21.70;90.80
11126;DHT22;5617;54.046;10.676;2023-07-20T12:33:54;21.70;91.10
11126;DHT22;5617;54.046;10.676;2023-07-20T12:36:02;21.80;91.00
11126;DHT22;5617;54.046;10.676;2023-07-20T12:38:10;21.80;90.90
11126;DHT22;5617;54.046;10.676;2023-07-20T12:40:18;21.60;90.50
11126;DHT22;5617;54.046;10.676;2023-07-20T12:42:26;21.50;90.80
11126;DHT22;5617;54.046;10.676;2023-07-20T12:44:35;21.40;91.00
11126;DHT22;5617;54.046;10.676;2023-07-20T12:46:44;21.40;91.00
11126;DHT22;5617;54.046;10.676;2023-07-20T12:48:52;21.30;91.00
11126;DHT22;5617;54.046;10.676;2023-07-20T12:51:00;21.50;90.90
11126;DHT22;5617;54.046;10.676;2023-07-20T12:53:08;21.60;91.00
11126;DHT22;5617;54.046;10.676;2023-07-20T12:55:19;21.70;90.20
11126;DHT22;5617;54.046;10.676;2023-07-20T12:57:27;21.60;90.10
11126;DHT22;5617;54.046;10.676;2023-07-20T12:59:35;21.30;89.90
11126;DHT22;5617;54.046;10.676;2023-07-20T13:01:44;21.10;90.10
11126;DHT22;5617;54.046;10.676;2023-07-20T13:03:52;20.80;90.80
11126;DHT22;5617;54.046;10.676;2023-07-20T13:06:05;20.50;91.60
11126;DHT22;5617;54.046;10.676;2023-07-20T13:08:18;20.20;92.20
11126;DHT22;5617;54.046;10.676;2023-07-20T13:10:27;19.80;92.70
11126;DHT22;5617;54.046;10.676;2023-07-20T13:12:36;19.60;93.20
11126;DHT22;5617;54.046;10.676;2023-07-20T13:14:45;19.40;93.50
11126;DHT22;5617;54.046;10.676;2023-07-20T13:16:55;19.20;93.90
11126;DHT22;5617;54.046;10.676;2023-07-20T13:19:03;19.20;94.20
11126;DHT22;5617;54.046;10.676;2023-07-20T13:21:11;19.50;94.30
11126;DHT22;5617;54.046;10.676;2023-07-20T13:23:19;20.00;94.30
11126;DHT22;5617;54.046;10.676;2023-07-20T13:25:28;20.20;94.20
11126;DHT22;5617;54.046;10.676;2023-07-20T13:27:36;20.20;94.20
11126;DHT22;5617;54.046;10.676;2023-07-20T13:29:46;20.20;94.30
11126;DHT22;5617;54.046;10.676;2023-07-20T13:31:56;20.20;94.50
11126;DHT22;5617;54.046;10.676;2023-07-20T13:34:04;20.10;94.90
11126;DHT22;5617;54.046;10.676;2023-07-20T13:36:14;20.20;94.80
11126;DHT22;5617;54.046;10.676;2023-07-20T13:38:21;20.20;94.50